Etusivu
METAR-TAF:

METAR-TAF

Lentoasemat :

Kuwaitin kansainvälinen lentoasema

Kuwait, Kuwait

Leveyspiiri: 29-13N, Pituuspiiri: 047-59E, korkeus merenpinnasta: 55 m

Tämänhetkinen sää

Tämä raportti tehtiin 13 minuuttia sitten, kello 07.00 UTC
Tuuli 23 kn pohjoisen/luoteesta
Lämpötila 38°C
Kosteus 15%
Ilmanpaine 1003 hPa
Näkyvyys: 7000 m
selkeää
(heikkoa) , laajalle levinnyttä pölyä

METAR: OKBK 220700Z 34023KT 7000 -BLDU SKC 38/07 Q1003 NOSIG

Aika: 10:13 (07:13 UTC)

Sääennuste

Tämä raportti tehtiin 2 tuntia ja 28 minuuttia sitten, kello 04.45 UTC
Ennuste voimassa 22. päivästä klo 06 UTC - 23. päivään klo 12 UTC
Tuuli 15 kn pohjoisen/luoteesta puuskistuen 25 kn:hen
Näkyvyys: 6000 m
selkeää
Ajoittain
22. päivästä klo 06 UTC - 22. päivään klo 15 UTC
pölymyrsky

TAF: OKBK 220445Z 2206/2312 34015G25KT 6000 SKC TEMPO 2206/2215 15000 BLDU

Säähavainnot ja -ennusteet yli 4000 lentoasemalta (METAR- ja TAF-raportit).

Käytössä olevat sääasemat on merkitty karttaan keltaisilla ja punaisilla pisteillä.

Aseta hiiri pisteen päälle nähdäksesi sääaseman nimen.

Klikkaa sitten nähdäksesi säähavainnot ja -ennusteet.

Kartan vaihtaminen: klikkaa mustalla rastilla varustettuja vihreitä pisteitä, niin voit zoomata sisään; viivalla varustettua vihreää pistettä, niin voit zoomata ulos tai vihreitä nuolia, niin pääset viereisille kartoille.


METAR-TAF: